sensor_id;sensor_type;location;lat;lon;timestamp;P1;durP1;ratioP1;P2;durP2;ratioP2
69185;SDS011;56298;49.246;9.410;2024-02-26T00:02:13;5.38;;;1.85;;
69185;SDS011;56298;49.246;9.410;2024-02-26T00:04:39;5.85;;;1.77;;
69185;SDS011;56298;49.246;9.410;2024-02-26T00:07:04;5.00;;;1.70;;
69185;SDS011;56298;49.246;9.410;2024-02-26T00:09:30;4.80;;;1.77;;
69185;SDS011;56298;49.246;9.410;2024-02-26T00:11:56;4.68;;;1.75;;
69185;SDS011;56298;49.246;9.410;2024-02-26T00:14:22;5.70;;;1.90;;
69185;SDS011;56298;49.246;9.410;2024-02-26T00:16:48;5.45;;;1.70;;
69185;SDS011;56298;49.246;9.410;2024-02-26T00:19:13;6.33;;;1.93;;
69185;SDS011;56298;49.246;9.410;2024-02-26T00:21:41;4.63;;;1.70;;
69185;SDS011;56298;49.246;9.410;2024-02-26T00:24:07;4.30;;;1.80;;
69185;SDS011;56298;49.246;9.410;2024-02-26T00:26:32;4.90;;;1.77;;
69185;SDS011;56298;49.246;9.410;2024-02-26T00:28:58;5.40;;;2.00;;
69185;SDS011;56298;49.246;9.410;2024-02-26T00:31:23;5.40;;;2.10;;
69185;SDS011;56298;49.246;9.410;2024-02-26T00:33:48;5.37;;;2.00;;
69185;SDS011;56298;49.246;9.410;2024-02-26T00:36:13;5.30;;;2.07;;
69185;SDS011;56298;49.246;9.410;2024-02-26T00:38:39;4.73;;;1.80;;
69185;SDS011;56298;49.246;9.410;2024-02-26T00:41:05;6.17;;;2.20;;
69185;SDS011;56298;49.246;9.410;2024-02-26T00:43:30;4.83;;;2.00;;
69185;SDS011;56298;49.246;9.410;2024-02-26T00:45:56;5.73;;;2.00;;
69185;SDS011;56298;49.246;9.410;2024-02-26T00:48:21;4.43;;;1.90;;
69185;SDS011;56298;49.246;9.410;2024-02-26T00:50:46;4.67;;;1.90;;
69185;SDS011;56298;49.246;9.410;2024-02-26T00:53:11;5.97;;;2.05;;
69185;SDS011;56298;49.246;9.410;2024-02-26T00:55:37;4.90;;;1.80;;
69185;SDS011;56298;49.246;9.410;2024-02-26T01:00:30;4.82;;;2.00;;
69185;SDS011;56298;49.246;9.410;2024-02-26T01:02:55;5.47;;;2.25;;
69185;SDS011;56298;49.246;9.410;2024-02-26T01:05:21;6.17;;;2.37;;
69185;SDS011;56298;49.246;9.410;2024-02-26T01:07:46;4.93;;;1.90;;
69185;SDS011;56298;49.246;9.410;2024-02-26T01:10:12;6.80;;;2.97;;
69185;SDS011;56298;49.246;9.410;2024-02-26T01:12:37;7.53;;;3.10;;
69185;SDS011;56298;49.246;9.410;2024-02-26T01:15:02;5.20;;;2.00;;
69185;SDS011;56298;49.246;9.410;2024-02-26T01:17:28;5.47;;;2.15;;
69185;SDS011;56298;49.246;9.410;2024-02-26T01:19:54;6.07;;;2.60;;
69185;SDS011;56298;49.246;9.410;2024-02-26T01:22:19;5.30;;;2.27;;
69185;SDS011;56298;49.246;9.410;2024-02-26T01:24:45;6.50;;;2.63;;
69185;SDS011;56298;49.246;9.410;2024-02-26T01:27:10;5.73;;;2.30;;
69185;SDS011;56298;49.246;9.410;2024-02-26T01:29:35;5.23;;;2.20;;
69185;SDS011;56298;49.246;9.410;2024-02-26T01:32:02;6.50;;;2.40;;
69185;SDS011;56298;49.246;9.410;2024-02-26T01:34:29;5.28;;;1.90;;
69185;SDS011;56298;49.246;9.410;2024-02-26T01:36:55;5.43;;;2.20;;
69185;SDS011;56298;49.246;9.410;2024-02-26T01:39:21;4.63;;;1.90;;
69185;SDS011;56298;49.246;9.410;2024-02-26T01:41:47;5.13;;;1.90;;
69185;SDS011;56298;49.246;9.410;2024-02-26T01:44:12;6.17;;;2.50;;
69185;SDS011;56298;49.246;9.410;2024-02-26T01:46:38;5.93;;;1.80;;
69185;SDS011;56298;49.246;9.410;2024-02-26T01:49:03;5.03;;;2.10;;
69185;SDS011;56298;49.246;9.410;2024-02-26T01:51:29;4.60;;;2.15;;
69185;SDS011;56298;49.246;9.410;2024-02-26T01:53:55;5.43;;;2.30;;
69185;SDS011;56298;49.246;9.410;2024-02-26T01:56:22;5.63;;;2.00;;
69185;SDS011;56298;49.246;9.410;2024-02-26T01:58:47;5.15;;;2.33;;
69185;SDS011;56298;49.246;9.410;2024-02-26T02:01:14;5.80;;;2.50;;
69185;SDS011;56298;49.246;9.410;2024-02-26T02:03:41;6.18;;;2.50;;
69185;SDS011;56298;49.246;9.410;2024-02-26T02:06:07;5.88;;;2.67;;
69185;SDS011;56298;49.246;9.410;2024-02-26T02:08:33;6.10;;;2.60;;
69185;SDS011;56298;49.246;9.410;2024-02-26T02:11:00;6.30;;;2.60;;
69185;SDS011;56298;49.246;9.410;2024-02-26T02:13:25;6.70;;;2.37;;
69185;SDS011;56298;49.246;9.410;2024-02-26T02:15:50;6.95;;;2.90;;
69185;SDS011;56298;49.246;9.410;2024-02-26T02:18:16;6.40;;;2.50;;
69185;SDS011;56298;49.246;9.410;2024-02-26T02:20:42;7.67;;;2.63;;
69185;SDS011;56298;49.246;9.410;2024-02-26T02:23:07;7.33;;;2.77;;
69185;SDS011;56298;49.246;9.410;2024-02-26T02:25:33;5.67;;;2.60;;
69185;SDS011;56298;49.246;9.410;2024-02-26T02:27:58;5.83;;;2.80;;
69185;SDS011;56298;49.246;9.410;2024-02-26T02:30:24;7.30;;;3.03;;
69185;SDS011;56298;49.246;9.410;2024-02-26T02:32:51;7.80;;;2.70;;
69185;SDS011;56298;49.246;9.410;2024-02-26T02:35:17;5.60;;;2.30;;
69185;SDS011;56298;49.246;9.410;2024-02-26T02:37:42;6.13;;;2.80;;
69185;SDS011;56298;49.246;9.410;2024-02-26T02:40:07;6.60;;;2.67;;
69185;SDS011;56298;49.246;9.410;2024-02-26T02:42:33;5.67;;;2.60;;
69185;SDS011;56298;49.246;9.410;2024-02-26T02:44:58;7.10;;;2.53;;
69185;SDS011;56298;49.246;9.410;2024-02-26T02:47:23;6.70;;;2.77;;
69185;SDS011;56298;49.246;9.410;2024-02-26T02:49:48;6.05;;;2.50;;
69185;SDS011;56298;49.246;9.410;2024-02-26T02:52:14;7.75;;;2.55;;
69185;SDS011;56298;49.246;9.410;2024-02-26T02:54:39;6.50;;;2.70;;
69185;SDS011;56298;49.246;9.410;2024-02-26T02:57:06;5.57;;;2.60;;
69185;SDS011;56298;49.246;9.410;2024-02-26T02:59:32;6.87;;;3.03;;
69185;SDS011;56298;49.246;9.410;2024-02-26T03:01:57;7.03;;;2.90;;
69185;SDS011;56298;49.246;9.410;2024-02-26T03:04:22;7.83;;;2.70;;
69185;SDS011;56298;49.246;9.410;2024-02-26T03:06:47;5.93;;;2.80;;
69185;SDS011;56298;49.246;9.410;2024-02-26T03:09:13;6.13;;;2.83;;
69185;SDS011;56298;49.246;9.410;2024-02-26T03:11:38;7.50;;;2.90;;
69185;SDS011;56298;49.246;9.410;2024-02-26T03:14:04;6.32;;;2.53;;
69185;SDS011;56298;49.246;9.410;2024-02-26T03:16:30;6.37;;;2.73;;
69185;SDS011;56298;49.246;9.410;2024-02-26T03:18:55;6.37;;;2.90;;
69185;SDS011;56298;49.246;9.410;2024-02-26T03:21:20;6.77;;;2.73;;
69185;SDS011;56298;49.246;9.410;2024-02-26T03:23:46;6.23;;;2.70;;
69185;SDS011;56298;49.246;9.410;2024-02-26T03:26:11;5.67;;;2.40;;
69185;SDS011;56298;49.246;9.410;2024-02-26T03:28:39;5.80;;;2.60;;
69185;SDS011;56298;49.246;9.410;2024-02-26T03:31:04;6.60;;;2.60;;
69185;SDS011;56298;49.246;9.410;2024-02-26T03:33:30;7.70;;;2.90;;
69185;SDS011;56298;49.246;9.410;2024-02-26T03:35:55;6.13;;;2.53;;
69185;SDS011;56298;49.246;9.410;2024-02-26T03:38:20;6.67;;;2.67;;
69185;SDS011;56298;49.246;9.410;2024-02-26T03:40:45;6.13;;;2.70;;
69185;SDS011;56298;49.246;9.410;2024-02-26T03:43:11;6.23;;;2.70;;
69185;SDS011;56298;49.246;9.410;2024-02-26T03:45:37;5.90;;;2.50;;
69185;SDS011;56298;49.246;9.410;2024-02-26T03:48:03;5.97;;;3.00;;
69185;SDS011;56298;49.246;9.410;2024-02-26T03:50:28;6.13;;;2.70;;
69185;SDS011;56298;49.246;9.410;2024-02-26T03:52:53;6.67;;;2.90;;
69185;SDS011;56298;49.246;9.410;2024-02-26T03:55:19;7.10;;;2.87;;
69185;SDS011;56298;49.246;9.410;2024-02-26T03:57:49;6.65;;;2.55;;
69185;SDS011;56298;49.246;9.410;2024-02-26T04:00:15;6.63;;;3.03;;
69185;SDS011;56298;49.246;9.410;2024-02-26T04:02:40;6.60;;;2.87;;
69185;SDS011;56298;49.246;9.410;2024-02-26T04:05:08;6.90;;;2.67;;
69185;SDS011;56298;49.246;9.410;2024-02-26T04:07:35;6.00;;;2.67;;
69185;SDS011;56298;49.246;9.410;2024-02-26T04:10:00;6.57;;;2.30;;
69185;SDS011;56298;49.246;9.410;2024-02-26T04:12:28;6.63;;;3.03;;
69185;SDS011;56298;49.246;9.410;2024-02-26T04:14:54;6.10;;;2.53;;
69185;SDS011;56298;49.246;9.410;2024-02-26T04:17:19;6.73;;;2.80;;
69185;SDS011;56298;49.246;9.410;2024-02-26T04:19:44;6.63;;;2.90;;
69185;SDS011;56298;49.246;9.410;2024-02-26T04:22:10;6.20;;;2.83;;
69185;SDS011;56298;49.246;9.410;2024-02-26T04:24:36;7.00;;;2.80;;
69185;SDS011;56298;49.246;9.410;2024-02-26T04:27:01;6.75;;;3.30;;
69185;SDS011;56298;49.246;9.410;2024-02-26T04:29:26;6.27;;;2.90;;
69185;SDS011;56298;49.246;9.410;2024-02-26T04:31:52;7.67;;;2.97;;
69185;SDS011;56298;49.246;9.410;2024-02-26T04:34:17;8.20;;;3.03;;
69185;SDS011;56298;49.246;9.410;2024-02-26T04:36:42;6.70;;;3.10;;
69185;SDS011;56298;49.246;9.410;2024-02-26T04:39:08;6.87;;;3.20;;
69185;SDS011;56298;49.246;9.410;2024-02-26T04:41:33;8.50;;;3.47;;
69185;SDS011;56298;49.246;9.410;2024-02-26T04:43:58;10.43;;;3.60;;
69185;SDS011;56298;49.246;9.410;2024-02-26T04:46:24;8.20;;;3.67;;
69185;SDS011;56298;49.246;9.410;2024-02-26T04:48:49;7.93;;;3.45;;
69185;SDS011;56298;49.246;9.410;2024-02-26T04:51:14;9.60;;;4.10;;
69185;SDS011;56298;49.246;9.410;2024-02-26T04:53:39;8.07;;;4.00;;
69185;SDS011;56298;49.246;9.410;2024-02-26T04:56:05;7.47;;;3.70;;
69185;SDS011;56298;49.246;9.410;2024-02-26T04:58:30;10.23;;;4.30;;
69185;SDS011;56298;49.246;9.410;2024-02-26T05:00:56;8.40;;;3.80;;
69185;SDS011;56298;49.246;9.410;2024-02-26T05:03:22;9.68;;;4.10;;
69185;SDS011;56298;49.246;9.410;2024-02-26T05:05:47;8.17;;;3.97;;
69185;SDS011;56298;49.246;9.410;2024-02-26T05:08:13;8.10;;;3.70;;
69185;SDS011;56298;49.246;9.410;2024-02-26T05:10:38;6.87;;;3.37;;
69185;SDS011;56298;49.246;9.410;2024-02-26T05:13:08;7.55;;;3.72;;
69185;SDS011;56298;49.246;9.410;2024-02-26T05:15:33;7.93;;;3.70;;
69185;SDS011;56298;49.246;9.410;2024-02-26T05:17:59;7.53;;;3.40;;
69185;SDS011;56298;49.246;9.410;2024-02-26T05:20:24;7.63;;;3.93;;
69185;SDS011;56298;49.246;9.410;2024-02-26T05:22:50;8.00;;;3.80;;
69185;SDS011;56298;49.246;9.410;2024-02-26T05:25:15;8.50;;;3.87;;
69185;SDS011;56298;49.246;9.410;2024-02-26T05:27:41;8.90;;;4.17;;
69185;SDS011;56298;49.246;9.410;2024-02-26T05:30:07;8.70;;;4.13;;
69185;SDS011;56298;49.246;9.410;2024-02-26T05:32:33;8.05;;;3.92;;
69185;SDS011;56298;49.246;9.410;2024-02-26T05:34:58;8.20;;;3.90;;
69185;SDS011;56298;49.246;9.410;2024-02-26T05:37:23;8.77;;;4.00;;
69185;SDS011;56298;49.246;9.410;2024-02-26T05:39:48;8.52;;;4.13;;
69185;SDS011;56298;49.246;9.410;2024-02-26T05:42:14;8.67;;;3.93;;
69185;SDS011;56298;49.246;9.410;2024-02-26T05:44:39;9.33;;;4.03;;
69185;SDS011;56298;49.246;9.410;2024-02-26T05:47:04;7.63;;;3.63;;
69185;SDS011;56298;49.246;9.410;2024-02-26T05:49:30;7.83;;;3.70;;
69185;SDS011;56298;49.246;9.410;2024-02-26T05:51:56;8.60;;;4.00;;
69185;SDS011;56298;49.246;9.410;2024-02-26T05:54:21;8.53;;;4.03;;
69185;SDS011;56298;49.246;9.410;2024-02-26T05:56:46;8.80;;;4.23;;
69185;SDS011;56298;49.246;9.410;2024-02-26T05:59:11;8.07;;;3.77;;
69185;SDS011;56298;49.246;9.410;2024-02-26T06:01:37;6.95;;;3.58;;
69185;SDS011;56298;49.246;9.410;2024-02-26T06:04:02;7.73;;;3.77;;
69185;SDS011;56298;49.246;9.410;2024-02-26T06:06:27;7.93;;;3.40;;
69185;SDS011;56298;49.246;9.410;2024-02-26T06:08:53;6.90;;;3.43;;
69185;SDS011;56298;49.246;9.410;2024-02-26T06:11:18;7.00;;;3.40;;
69185;SDS011;56298;49.246;9.410;2024-02-26T06:13:43;8.03;;;3.30;;
69185;SDS011;56298;49.246;9.410;2024-02-26T06:16:08;8.43;;;3.70;;
69185;SDS011;56298;49.246;9.410;2024-02-26T06:18:34;7.20;;;3.80;;
69185;SDS011;56298;49.246;9.410;2024-02-26T06:20:59;7.47;;;3.60;;
69185;SDS011;56298;49.246;9.410;2024-02-26T06:23:25;7.03;;;3.67;;
69185;SDS011;56298;49.246;9.410;2024-02-26T06:25:51;7.32;;;3.40;;
69185;SDS011;56298;49.246;9.410;2024-02-26T06:28:17;8.07;;;3.73;;
69185;SDS011;56298;49.246;9.410;2024-02-26T06:30:42;8.10;;;3.90;;
69185;SDS011;56298;49.246;9.410;2024-02-26T06:33:07;8.77;;;3.90;;
69185;SDS011;56298;49.246;9.410;2024-02-26T06:35:33;8.20;;;3.70;;
69185;SDS011;56298;49.246;9.410;2024-02-26T06:37:58;8.47;;;3.90;;
69185;SDS011;56298;49.246;9.410;2024-02-26T06:40:23;8.60;;;3.63;;
69185;SDS011;56298;49.246;9.410;2024-02-26T06:42:49;7.45;;;3.55;;
69185;SDS011;56298;49.246;9.410;2024-02-26T06:45:15;8.30;;;3.90;;
69185;SDS011;56298;49.246;9.410;2024-02-26T06:47:40;8.60;;;3.80;;
69185;SDS011;56298;49.246;9.410;2024-02-26T06:50:06;8.67;;;4.00;;
69185;SDS011;56298;49.246;9.410;2024-02-26T06:52:31;8.23;;;4.30;;
69185;SDS011;56298;49.246;9.410;2024-02-26T06:54:56;8.37;;;3.80;;
69185;SDS011;56298;49.246;9.410;2024-02-26T06:57:22;9.53;;;4.13;;
69185;SDS011;56298;49.246;9.410;2024-02-26T06:59:47;8.87;;;4.40;;
69185;SDS011;56298;49.246;9.410;2024-02-26T07:02:13;8.57;;;4.00;;
69185;SDS011;56298;49.246;9.410;2024-02-26T07:04:39;8.63;;;4.20;;
69185;SDS011;56298;49.246;9.410;2024-02-26T07:07:04;8.53;;;3.80;;
69185;SDS011;56298;49.246;9.410;2024-02-26T07:09:29;8.33;;;3.70;;
69185;SDS011;56298;49.246;9.410;2024-02-26T07:11:54;8.93;;;4.10;;
69185;SDS011;56298;49.246;9.410;2024-02-26T07:14:20;8.23;;;4.07;;
69185;SDS011;56298;49.246;9.410;2024-02-26T07:16:45;9.27;;;4.30;;
69185;SDS011;56298;49.246;9.410;2024-02-26T07:19:10;7.63;;;3.70;;
69185;SDS011;56298;49.246;9.410;2024-02-26T07:21:35;7.30;;;3.60;;
69185;SDS011;56298;49.246;9.410;2024-02-26T07:24:01;7.80;;;3.90;;
69185;SDS011;56298;49.246;9.410;2024-02-26T07:26:26;8.30;;;3.87;;
69185;SDS011;56298;49.246;9.410;2024-02-26T07:28:51;8.50;;;4.03;;
69185;SDS011;56298;49.246;9.410;2024-02-26T07:31:17;9.55;;;4.35;;
69185;SDS011;56298;49.246;9.410;2024-02-26T07:33:43;10.75;;;4.90;;
69185;SDS011;56298;49.246;9.410;2024-02-26T07:36:08;9.63;;;4.17;;
69185;SDS011;56298;49.246;9.410;2024-02-26T07:38:33;8.57;;;4.50;;
69185;SDS011;56298;49.246;9.410;2024-02-26T07:40:59;9.43;;;4.78;;
69185;SDS011;56298;49.246;9.410;2024-02-26T07:43:26;8.68;;;3.95;;
69185;SDS011;56298;49.246;9.410;2024-02-26T07:45:52;8.43;;;3.97;;
69185;SDS011;56298;49.246;9.410;2024-02-26T07:48:17;10.17;;;4.20;;
69185;SDS011;56298;49.246;9.410;2024-02-26T07:50:42;9.02;;;3.75;;
69185;SDS011;56298;49.246;9.410;2024-02-26T07:53:08;8.40;;;3.90;;
69185;SDS011;56298;49.246;9.410;2024-02-26T07:55:35;10.07;;;3.97;;
69185;SDS011;56298;49.246;9.410;2024-02-26T07:58:00;7.43;;;3.90;;
69185;SDS011;56298;49.246;9.410;2024-02-26T08:00:25;8.37;;;3.90;;
69185;SDS011;56298;49.246;9.410;2024-02-26T08:02:51;8.20;;;4.10;;
69185;SDS011;56298;49.246;9.410;2024-02-26T08:05:16;7.80;;;3.90;;
69185;SDS011;56298;49.246;9.410;2024-02-26T08:07:41;8.17;;;4.20;;
69185;SDS011;56298;49.246;9.410;2024-02-26T08:10:07;7.43;;;3.80;;
69185;SDS011;56298;49.246;9.410;2024-02-26T08:12:32;9.00;;;4.10;;
69185;SDS011;56298;49.246;9.410;2024-02-26T08:14:57;9.07;;;4.23;;
69185;SDS011;56298;49.246;9.410;2024-02-26T08:17:23;8.13;;;4.20;;
69185;SDS011;56298;49.246;9.410;2024-02-26T08:19:48;7.88;;;3.90;;
69185;SDS011;56298;49.246;9.410;2024-02-26T08:22:14;7.83;;;4.10;;
69185;SDS011;56298;49.246;9.410;2024-02-26T08:24:44;7.90;;;4.10;;
69185;SDS011;56298;49.246;9.410;2024-02-26T08:27:10;7.45;;;4.00;;
69185;SDS011;56298;49.246;9.410;2024-02-26T08:29:35;8.77;;;4.53;;
69185;SDS011;56298;49.246;9.410;2024-02-26T08:32:01;8.77;;;4.37;;
69185;SDS011;56298;49.246;9.410;2024-02-26T08:34:26;9.23;;;4.60;;
69185;SDS011;56298;49.246;9.410;2024-02-26T08:36:51;8.90;;;4.53;;
69185;SDS011;56298;49.246;9.410;2024-02-26T08:39:17;8.40;;;4.17;;
69185;SDS011;56298;49.246;9.410;2024-02-26T08:41:43;8.47;;;4.63;;
69185;SDS011;56298;49.246;9.410;2024-02-26T08:44:10;8.97;;;4.57;;
69185;SDS011;56298;49.246;9.410;2024-02-26T08:46:36;9.70;;;4.88;;
69185;SDS011;56298;49.246;9.410;2024-02-26T08:49:01;8.40;;;4.73;;
69185;SDS011;56298;49.246;9.410;2024-02-26T08:51:26;8.40;;;4.60;;
69185;SDS011;56298;49.246;9.410;2024-02-26T08:53:52;9.13;;;4.93;;
69185;SDS011;56298;49.246;9.410;2024-02-26T08:56:18;9.27;;;4.93;;
69185;SDS011;56298;49.246;9.410;2024-02-26T08:58:46;9.27;;;4.80;;
69185;SDS011;56298;49.246;9.410;2024-02-26T09:01:14;10.52;;;5.45;;
69185;SDS011;56298;49.246;9.410;2024-02-26T09:03:39;10.00;;;5.07;;
69185;SDS011;56298;49.246;9.410;2024-02-26T09:06:05;10.88;;;5.68;;
69185;SDS011;56298;49.246;9.410;2024-02-26T09:08:34;10.10;;;5.27;;
69185;SDS011;56298;49.246;9.410;2024-02-26T09:11:01;9.75;;;5.28;;
69185;SDS011;56298;49.246;9.410;2024-02-26T09:13:26;9.37;;;4.90;;
69185;SDS011;56298;49.246;9.410;2024-02-26T09:15:52;8.90;;;4.60;;
69185;SDS011;56298;49.246;9.410;2024-02-26T09:18:17;12.00;;;4.90;;
69185;SDS011;56298;49.246;9.410;2024-02-26T09:20:43;9.57;;;4.67;;
69185;SDS011;56298;49.246;9.410;2024-02-26T09:23:13;8.65;;;4.40;;
69185;SDS011;56298;49.246;9.410;2024-02-26T09:25:38;8.10;;;4.10;;
69185;SDS011;56298;49.246;9.410;2024-02-26T09:28:04;9.43;;;4.40;;
69185;SDS011;56298;49.246;9.410;2024-02-26T09:30:29;9.27;;;4.70;;
69185;SDS011;56298;49.246;9.410;2024-02-26T09:32:54;8.50;;;4.23;;
69185;SDS011;56298;49.246;9.410;2024-02-26T09:35:20;9.38;;;4.35;;
69185;SDS011;56298;49.246;9.410;2024-02-26T09:37:46;8.13;;;4.20;;
69185;SDS011;56298;49.246;9.410;2024-02-26T09:40:13;8.60;;;4.47;;
69185;SDS011;56298;49.246;9.410;2024-02-26T09:42:43;9.18;;;4.32;;
69185;SDS011;56298;49.246;9.410;2024-02-26T09:45:10;8.50;;;4.30;;
69185;SDS011;56298;49.246;9.410;2024-02-26T09:47:40;7.78;;;4.00;;
69185;SDS011;56298;49.246;9.410;2024-02-26T09:50:07;9.65;;;4.20;;
69185;SDS011;56298;49.246;9.410;2024-02-26T09:52:34;8.70;;;4.18;;
69185;SDS011;56298;49.246;9.410;2024-02-26T09:55:03;8.95;;;4.40;;
69185;SDS011;56298;49.246;9.410;2024-02-26T09:57:29;7.53;;;3.97;;
69185;SDS011;56298;49.246;9.410;2024-02-26T09:59:54;8.10;;;3.93;;
69185;SDS011;56298;49.246;9.410;2024-02-26T10:02:28;7.70;;;3.90;;
69185;SDS011;56298;49.246;9.410;2024-02-26T10:04:55;8.05;;;3.85;;
69185;SDS011;56298;49.246;9.410;2024-02-26T10:07:22;8.98;;;4.20;;
69185;SDS011;56298;49.246;9.410;2024-02-26T10:09:48;7.90;;;3.63;;
69185;SDS011;56298;49.246;9.410;2024-02-26T10:12:13;6.43;;;3.23;;
69185;SDS011;56298;49.246;9.410;2024-02-26T10:14:43;8.07;;;3.38;;
69185;SDS011;56298;49.246;9.410;2024-02-26T10:17:08;7.03;;;3.47;;
69185;SDS011;56298;49.246;9.410;2024-02-26T10:19:33;6.70;;;3.13;;
69185;SDS011;56298;49.246;9.410;2024-02-26T10:21:59;8.30;;;3.67;;
69185;SDS011;56298;49.246;9.410;2024-02-26T10:24:26;7.43;;;3.57;;
69185;SDS011;56298;49.246;9.410;2024-02-26T10:26:54;7.40;;;3.47;;
69185;SDS011;56298;49.246;9.410;2024-02-26T10:29:20;7.72;;;3.40;;
69185;SDS011;56298;49.246;9.410;2024-02-26T10:31:47;6.15;;;3.25;;
69185;SDS011;56298;49.246;9.410;2024-02-26T10:34:12;7.63;;;3.30;;
69185;SDS011;56298;49.246;9.410;2024-02-26T10:36:39;7.15;;;3.42;;
69185;SDS011;56298;49.246;9.410;2024-02-26T10:39:08;6.95;;;3.08;;
69185;SDS011;56298;49.246;9.410;2024-02-26T10:41:34;7.27;;;3.30;;
69185;SDS011;56298;49.246;9.410;2024-02-26T10:44:00;7.47;;;3.38;;
69185;SDS011;56298;49.246;9.410;2024-02-26T10:46:25;6.70;;;3.43;;
69185;SDS011;56298;49.246;9.410;2024-02-26T10:48:51;7.13;;;3.47;;
69185;SDS011;56298;49.246;9.410;2024-02-26T10:51:20;6.25;;;3.33;;
69185;SDS011;56298;49.246;9.410;2024-02-26T10:53:51;8.03;;;3.63;;
69185;SDS011;56298;49.246;9.410;2024-02-26T10:56:26;7.53;;;3.40;;
69185;SDS011;56298;49.246;9.410;2024-02-26T10:58:53;6.72;;;3.10;;
69185;SDS011;56298;49.246;9.410;2024-02-26T11:01:19;9.13;;;4.10;;
69185;SDS011;56298;49.246;9.410;2024-02-26T11:03:46;7.72;;;3.60;;
69185;SDS011;56298;49.246;9.410;2024-02-26T11:06:15;7.55;;;3.67;;
69185;SDS011;56298;49.246;9.410;2024-02-26T11:08:40;7.27;;;3.50;;
69185;SDS011;56298;49.246;9.410;2024-02-26T11:11:06;7.67;;;3.30;;
69185;SDS011;56298;49.246;9.410;2024-02-26T11:13:32;6.72;;;3.70;;
69185;SDS011;56298;49.246;9.410;2024-02-26T11:16:03;9.93;;;4.57;;
69185;SDS011;56298;49.246;9.410;2024-02-26T11:18:28;7.67;;;4.03;;
69185;SDS011;56298;49.246;9.410;2024-02-26T11:20:55;8.68;;;4.50;;
69185;SDS011;56298;49.246;9.410;2024-02-26T11:23:23;8.90;;;4.35;;
69185;SDS011;56298;49.246;9.410;2024-02-26T11:25:52;8.10;;;3.70;;
69185;SDS011;56298;49.246;9.410;2024-02-26T11:28:20;8.30;;;4.17;;
69185;SDS011;56298;49.246;9.410;2024-02-26T11:30:48;8.70;;;4.33;;
69185;SDS011;56298;49.246;9.410;2024-02-26T11:33:14;8.48;;;3.90;;
69185;SDS011;56298;49.246;9.410;2024-02-26T11:35:40;7.60;;;3.30;;
69185;SDS011;56298;49.246;9.410;2024-02-26T11:38:06;7.30;;;3.63;;
69185;SDS011;56298;49.246;9.410;2024-02-26T11:40:32;6.50;;;3.20;;
69185;SDS011;56298;49.246;9.410;2024-02-26T11:42:59;6.85;;;3.25;;
69185;SDS011;56298;49.246;9.410;2024-02-26T11:48:10;6.28;;;2.88;;
69185;SDS011;56298;49.246;9.410;2024-02-26T11:50:38;6.10;;;2.80;;
69185;SDS011;56298;49.246;9.410;2024-02-26T11:53:19;6.57;;;2.97;;
69185;SDS011;56298;49.246;9.410;2024-02-26T11:59:04;6.33;;;2.93;;
69185;SDS011;56298;49.246;9.410;2024-02-26T12:04:22;6.47;;;2.60;;
69185;SDS011;56298;49.246;9.410;2024-02-26T12:07:01;5.77;;;2.30;;
69185;SDS011;56298;49.246;9.410;2024-02-26T12:09:45;5.07;;;2.03;;
69185;SDS011;56298;49.246;9.410;2024-02-26T12:12:13;6.10;;;2.20;;
69185;SDS011;56298;49.246;9.410;2024-02-26T12:14:52;4.40;;;1.80;;
69185;SDS011;56298;49.246;9.410;2024-02-26T12:17:19;4.60;;;1.80;;
69185;SDS011;56298;49.246;9.410;2024-02-26T12:19:49;5.00;;;1.88;;
69185;SDS011;56298;49.246;9.410;2024-02-26T12:22:15;5.53;;;2.25;;
69185;SDS011;56298;49.246;9.410;2024-02-26T12:24:41;5.53;;;2.20;;
69185;SDS011;56298;49.246;9.410;2024-02-26T12:27:07;5.03;;;2.22;;
69185;SDS011;56298;49.246;9.410;2024-02-26T12:29:32;5.37;;;2.10;;
69185;SDS011;56298;49.246;9.410;2024-02-26T12:31:57;6.37;;;2.43;;
69185;SDS011;56298;49.246;9.410;2024-02-26T12:34:23;5.40;;;2.40;;
69185;SDS011;56298;49.246;9.410;2024-02-26T12:36:48;5.80;;;2.30;;
69185;SDS011;56298;49.246;9.410;2024-02-26T12:39:14;5.63;;;2.23;;
69185;SDS011;56298;49.246;9.410;2024-02-26T12:41:39;5.60;;;2.20;;
69185;SDS011;56298;49.246;9.410;2024-02-26T12:44:05;5.03;;;2.35;;
69185;SDS011;56298;49.246;9.410;2024-02-26T12:46:32;5.47;;;1.90;;
69185;SDS011;56298;49.246;9.410;2024-02-26T12:48:58;5.93;;;2.20;;
69185;SDS011;56298;49.246;9.410;2024-02-26T12:51:23;5.13;;;1.75;;
69185;SDS011;56298;49.246;9.410;2024-02-26T12:53:52;5.73;;;2.17;;
69185;SDS011;56298;49.246;9.410;2024-02-26T12:56:18;5.55;;;2.15;;
69185;SDS011;56298;49.246;9.410;2024-02-26T12:58:44;5.20;;;2.10;;
69185;SDS011;56298;49.246;9.410;2024-02-26T13:01:13;6.05;;;2.00;;
69185;SDS011;56298;49.246;9.410;2024-02-26T13:03:39;4.43;;;1.60;;
69185;SDS011;56298;49.246;9.410;2024-02-26T13:06:06;4.93;;;1.73;;
69185;SDS011;56298;49.246;9.410;2024-02-26T13:08:32;4.65;;;1.60;;
69185;SDS011;56298;49.246;9.410;2024-02-26T13:10:58;5.13;;;1.60;;
69185;SDS011;56298;49.246;9.410;2024-02-26T13:13:24;4.30;;;1.90;;
69185;SDS011;56298;49.246;9.410;2024-02-26T13:15:49;5.25;;;1.65;;
69185;SDS011;56298;49.246;9.410;2024-02-26T13:18:14;4.30;;;1.75;;
69185;SDS011;56298;49.246;9.410;2024-02-26T13:20:40;5.35;;;2.00;;
69185;SDS011;56298;49.246;9.410;2024-02-26T13:23:06;4.27;;;1.80;;
69185;SDS011;56298;49.246;9.410;2024-02-26T13:25:33;4.22;;;1.65;;
69185;SDS011;56298;49.246;9.410;2024-02-26T13:30:38;4.32;;;1.65;;
69185;SDS011;56298;49.246;9.410;2024-02-26T13:33:09;5.00;;;2.00;;
69185;SDS011;56298;49.246;9.410;2024-02-26T13:36:00;4.70;;;1.90;;
69185;SDS011;56298;49.246;9.410;2024-02-26T13:38:26;5.13;;;1.93;;
69185;SDS011;56298;49.246;9.410;2024-02-26T13:40:52;4.50;;;1.70;;
69185;SDS011;56298;49.246;9.410;2024-02-26T13:43:18;4.88;;;1.80;;
69185;SDS011;56298;49.246;9.410;2024-02-26T13:45:44;4.53;;;1.73;;
69185;SDS011;56298;49.246;9.410;2024-02-26T13:48:10;4.13;;;1.50;;
69185;SDS011;56298;49.246;9.410;2024-02-26T13:50:36;4.03;;;1.50;;
69185;SDS011;56298;49.246;9.410;2024-02-26T13:53:02;4.57;;;1.52;;
69185;SDS011;56298;49.246;9.410;2024-02-26T13:55:28;4.63;;;1.60;;
69185;SDS011;56298;49.246;9.410;2024-02-26T13:57:55;5.63;;;1.80;;
69185;SDS011;56298;49.246;9.410;2024-02-26T14:00:21;4.80;;;1.75;;
69185;SDS011;56298;49.246;9.410;2024-02-26T14:02:47;3.70;;;1.40;;
69185;SDS011;56298;49.246;9.410;2024-02-26T14:05:12;4.00;;;1.30;;
69185;SDS011;56298;49.246;9.410;2024-02-26T14:07:38;4.37;;;1.20;;
69185;SDS011;56298;49.246;9.410;2024-02-26T14:10:04;6.72;;;1.27;;
69185;SDS011;56298;49.246;9.410;2024-02-26T14:12:30;4.72;;;1.30;;
69185;SDS011;56298;49.246;9.410;2024-02-26T14:14:55;4.15;;;1.38;;
69185;SDS011;56298;49.246;9.410;2024-02-26T14:17:24;5.32;;;1.73;;
69185;SDS011;56298;49.246;9.410;2024-02-26T14:19:49;4.53;;;1.70;;
69185;SDS011;56298;49.246;9.410;2024-02-26T14:22:14;4.60;;;1.70;;
69185;SDS011;56298;49.246;9.410;2024-02-26T14:24:43;5.30;;;1.55;;
69185;SDS011;56298;49.246;9.410;2024-02-26T14:27:08;4.47;;;1.50;;
69185;SDS011;56298;49.246;9.410;2024-02-26T14:29:35;5.60;;;1.85;;
69185;SDS011;56298;49.246;9.410;2024-02-26T14:32:01;5.50;;;1.90;;
69185;SDS011;56298;49.246;9.410;2024-02-26T14:34:28;6.05;;;1.65;;
69185;SDS011;56298;49.246;9.410;2024-02-26T14:36:54;6.07;;;1.90;;
69185;SDS011;56298;49.246;9.410;2024-02-26T14:39:19;4.40;;;1.85;;
69185;SDS011;56298;49.246;9.410;2024-02-26T14:41:45;4.93;;;1.80;;
69185;SDS011;56298;49.246;9.410;2024-02-26T14:44:10;4.20;;;1.50;;
69185;SDS011;56298;49.246;9.410;2024-02-26T14:46:36;4.63;;;1.77;;
69185;SDS011;56298;49.246;9.410;2024-02-26T14:49:01;4.57;;;1.60;;
69185;SDS011;56298;49.246;9.410;2024-02-26T14:51:26;4.13;;;1.43;;
69185;SDS011;56298;49.246;9.410;2024-02-26T14:53:52;4.10;;;1.47;;
69185;SDS011;56298;49.246;9.410;2024-02-26T14:56:18;4.13;;;1.60;;